createdAt,value
2019-02-27T00:00:24.148Z,1025.03
2019-02-27T00:01:24.177Z,1025.06
2019-02-27T00:02:24.199Z,1025.07
2019-02-27T00:03:24.229Z,1025.06
2019-02-27T00:04:24.255Z,1025.11
2019-02-27T00:05:24.281Z,1025.13
2019-02-27T00:06:24.308Z,1025.05
2019-02-27T00:07:24.336Z,1025.03
2019-02-27T00:08:26.575Z,1024.97
2019-02-27T00:09:24.389Z,1024.95
2019-02-27T00:10:24.415Z,1024.83
2019-02-27T00:11:24.440Z,1024.70
2019-02-27T00:12:24.468Z,1024.67
2019-02-27T00:13:25.403Z,1024.63
2019-02-27T00:14:24.522Z,1024.69
2019-02-27T00:15:24.548Z,1024.77
2019-02-27T00:16:24.574Z,1024.81
2019-02-27T00:17:24.601Z,1024.86
2019-02-27T00:18:24.640Z,1024.85
2019-02-27T00:19:24.656Z,1024.86
2019-02-27T00:20:24.678Z,1024.85
2019-02-27T00:21:24.705Z,1024.85
2019-02-27T00:22:24.731Z,1024.83
2019-02-27T00:23:24.758Z,1024.79
2019-02-27T00:24:27.054Z,1024.78
2019-02-27T00:25:24.811Z,1024.74
2019-02-27T00:26:24.836Z,1024.71
2019-02-27T00:27:24.858Z,1024.65
2019-02-27T00:28:24.884Z,1024.62
2019-02-27T00:29:28.862Z,1024.54
2019-02-27T00:30:24.937Z,1024.52
2019-02-27T00:31:24.962Z,1024.44
2019-02-27T00:32:25.003Z,1024.39
2019-02-27T00:33:26.255Z,1024.36
2019-02-27T00:34:25.039Z,1024.42
2019-02-27T00:35:25.067Z,1024.50
2019-02-27T00:36:25.092Z,1024.51
2019-02-27T00:37:25.116Z,1024.57
2019-02-27T00:38:25.807Z,1024.58
2019-02-27T00:39:25.167Z,1024.58
2019-02-27T00:40:25.192Z,1024.59
2019-02-27T00:41:25.226Z,1024.60
2019-02-27T00:42:33.262Z,1024.61
2019-02-27T00:43:25.965Z,1024.54
2019-02-27T00:44:25.297Z,1024.54
2019-02-27T00:45:25.321Z,1024.55
2019-02-27T00:46:25.361Z,1024.49
2019-02-27T00:47:25.371Z,1024.47
2019-02-27T00:48:26.279Z,1024.46
2019-02-27T00:49:25.420Z,1024.48
2019-02-27T00:50:25.446Z,1024.51
2019-02-27T00:51:25.474Z,1024.53
2019-02-27T00:52:25.496Z,1024.49
2019-02-27T00:53:25.520Z,1024.48
2019-02-27T00:54:25.551Z,1024.45
2019-02-27T00:55:25.570Z,1024.37
2019-02-27T00:56:25.596Z,1024.33
2019-02-27T00:57:25.624Z,1024.37
2019-02-27T00:58:27.010Z,1024.33
2019-02-27T00:59:25.672Z,1024.38
2019-02-27T01:00:25.699Z,1024.32
2019-02-27T01:01:25.721Z,1024.30
2019-02-27T01:02:25.752Z,1024.33
2019-02-27T01:03:26.725Z,1024.29
2019-02-27T01:04:25.795Z,1024.30
2019-02-27T01:05:25.820Z,1024.22
2019-02-27T01:06:25.850Z,1024.19
2019-02-27T01:07:25.871Z,1024.12
2019-02-27T01:08:27.577Z,1024.09
2019-02-27T01:09:25.921Z,1024.04
2019-02-27T01:10:25.945Z,1024.09
2019-02-27T01:11:25.974Z,1024.01
2019-02-27T01:12:25.995Z,1023.98
2019-02-27T01:13:26.019Z,1023.97
2019-02-27T01:14:26.045Z,1023.96
2019-02-27T01:15:26.073Z,1023.96
2019-02-27T01:16:26.099Z,1023.96
2019-02-27T01:17:26.131Z,1023.94
2019-02-27T01:18:30.531Z,1023.87
2019-02-27T01:19:26.173Z,1023.87
2019-02-27T01:20:26.194Z,1023.84
2019-02-27T01:21:26.220Z,1023.83
2019-02-27T01:22:26.243Z,1023.83
2019-02-27T01:23:26.271Z,1023.81
2019-02-27T01:24:26.293Z,1023.80
2019-02-27T01:25:26.318Z,1023.76
2019-02-27T01:26:30.569Z,1023.75
2019-02-27T01:27:26.372Z,1023.75
2019-02-27T01:28:26.396Z,1023.80
2019-02-27T01:29:26.419Z,1023.78
2019-02-27T01:30:26.446Z,1023.78
2019-02-27T01:31:26.469Z,1023.74
2019-02-27T01:32:28.850Z,1023.76
2019-02-27T01:33:26.519Z,1023.72
2019-02-27T01:34:26.543Z,1023.73
2019-02-27T01:35:26.567Z,1023.70
2019-02-27T01:36:26.592Z,1023.68
2019-02-27T01:37:31.362Z,1023.71
2019-02-27T01:38:26.646Z,1023.70
2019-02-27T01:39:26.668Z,1023.66
2019-02-27T01:40:26.696Z,1023.71
2019-02-27T01:41:26.718Z,1023.68
2019-02-27T01:42:31.975Z,1023.66
2019-02-27T01:43:26.767Z,1023.63
2019-02-27T01:44:26.794Z,1023.57
2019-02-27T01:45:26.818Z,1023.54
2019-02-27T01:46:27.754Z,1023.50
2019-02-27T01:47:26.867Z,1023.46
2019-02-27T01:48:26.893Z,1023.45
2019-02-27T01:49:26.918Z,1023.44
2019-02-27T01:50:26.944Z,1023.49
2019-02-27T01:51:28.202Z,1023.43
2019-02-27T01:52:26.995Z,1023.36
2019-02-27T01:53:27.015Z,1023.31
2019-02-27T01:54:27.044Z,1023.28
2019-02-27T01:55:27.065Z,1023.21
2019-02-27T01:56:29.081Z,1023.21
2019-02-27T01:57:27.115Z,1023.18
2019-02-27T01:58:27.143Z,1023.16
2019-02-27T01:59:27.164Z,1023.19
2019-02-27T02:00:27.192Z,1023.18
2019-02-27T02:01:30.223Z,1023.15
2019-02-27T02:02:27.238Z,1023.07
2019-02-27T02:03:27.273Z,1023.04
2019-02-27T02:04:27.289Z,1023.02
2019-02-27T02:05:27.557Z,1023.05
2019-02-27T02:06:27.337Z,1022.97
2019-02-27T02:07:27.364Z,1022.95
2019-02-27T02:08:27.387Z,1022.93
2019-02-27T02:09:27.410Z,1022.90
2019-02-27T02:10:28.288Z,1022.87
2019-02-27T02:11:27.458Z,1022.86
2019-02-27T02:12:27.485Z,1022.89
2019-02-27T02:13:27.516Z,1022.89
2019-02-27T02:14:27.536Z,1022.92
2019-02-27T02:15:27.883Z,1022.95
2019-02-27T02:16:27.584Z,1022.96
2019-02-27T02:17:27.610Z,1022.95
2019-02-27T02:18:27.634Z,1022.93
2019-02-27T02:19:27.655Z,1022.98
2019-02-27T02:20:27.797Z,1022.98
2019-02-27T02:21:27.706Z,1022.98
2019-02-27T02:22:27.730Z,1022.97
2019-02-27T02:23:27.754Z,1022.97
2019-02-27T02:24:27.779Z,1022.96
2019-02-27T02:25:28.093Z,1023.05
2019-02-27T02:26:27.832Z,1023.01
2019-02-27T02:27:27.855Z,1022.97
2019-02-27T02:28:27.896Z,1022.99
2019-02-27T02:29:27.903Z,1022.96
2019-02-27T02:30:30.001Z,1022.92
2019-02-27T02:31:27.955Z,1022.90
2019-02-27T02:32:27.978Z,1022.90
2019-02-27T02:33:30.316Z,1022.93
2019-02-27T02:34:28.033Z,1022.90
2019-02-27T02:35:28.051Z,1022.82
2019-02-27T02:36:28.076Z,1022.83
2019-02-27T02:37:28.100Z,1022.80
2019-02-27T02:38:28.127Z,1022.76
2019-02-27T02:39:28.155Z,1022.78
2019-02-27T02:40:31.106Z,1022.80
2019-02-27T02:41:28.202Z,1022.80
2019-02-27T02:42:28.225Z,1022.74
2019-02-27T02:43:28.249Z,1022.75
2019-02-27T02:44:28.284Z,1022.77
2019-02-27T02:45:32.735Z,1022.75
2019-02-27T02:46:28.322Z,1022.72
2019-02-27T02:47:28.355Z,1022.65
2019-02-27T02:48:31.103Z,1022.60
2019-02-27T02:49:28.405Z,1022.59
2019-02-27T02:50:28.437Z,1022.58
2019-02-27T02:51:29.835Z,1022.57
2019-02-27T02:52:28.472Z,1022.56
2019-02-27T02:53:28.503Z,1022.49
2019-02-27T02:54:28.527Z,1022.43
2019-02-27T02:55:28.546Z,1022.42
2019-02-27T02:56:28.571Z,1022.39
2019-02-27T02:57:28.597Z,1022.37
2019-02-27T02:58:28.621Z,1022.31
2019-02-27T02:59:28.649Z,1022.25
2019-02-27T03:00:28.671Z,1022.26
2019-02-27T03:01:28.696Z,1022.23
2019-02-27T03:02:29.773Z,1022.19
2019-02-27T03:03:28.747Z,1022.21
2019-02-27T03:04:28.772Z,1022.23
2019-02-27T03:05:28.795Z,1022.22
2019-02-27T03:06:34.713Z,1022.19
2019-02-27T03:07:28.847Z,1022.24
2019-02-27T03:08:28.870Z,1022.20
2019-02-27T03:09:30.633Z,1022.16
2019-02-27T03:10:28.922Z,1022.12
2019-02-27T03:11:28.945Z,1022.07
2019-02-27T03:12:31.022Z,1022.05
2019-02-27T03:13:28.995Z,1022.02
2019-02-27T03:14:29.022Z,1021.96
2019-02-27T03:15:29.661Z,1021.91
2019-02-27T03:16:29.079Z,1021.88
2019-02-27T03:17:29.097Z,1021.89
2019-02-27T03:18:29.699Z,1021.85
2019-02-27T03:19:29.144Z,1021.87
2019-02-27T03:20:29.172Z,1021.80
2019-02-27T03:21:29.215Z,1021.79
2019-02-27T03:22:29.241Z,1021.74
2019-02-27T03:23:29.252Z,1021.72
2019-02-27T03:24:29.270Z,1021.67
2019-02-27T03:25:29.299Z,1021.70
2019-02-27T03:26:29.322Z,1021.70
2019-02-27T03:27:30.536Z,1021.69
2019-02-27T03:28:29.371Z,1021.66
2019-02-27T03:29:29.398Z,1021.68
2019-02-27T03:30:36.080Z,1021.68
2019-02-27T03:31:29.447Z,1021.67
2019-02-27T03:32:29.477Z,1021.67
2019-02-27T03:33:29.499Z,1021.66
2019-02-27T03:34:29.522Z,1021.68
2019-02-27T03:35:29.550Z,1021.65
2019-02-27T03:36:29.591Z,1021.61
2019-02-27T03:37:29.598Z,1021.59
2019-02-27T03:38:29.633Z,1021.62
2019-02-27T03:39:34.632Z,1021.59
2019-02-27T03:40:29.676Z,1021.61
2019-02-27T03:41:29.697Z,1021.58
2019-02-27T03:42:30.900Z,1021.56
2019-02-27T03:43:29.747Z,1021.56
2019-02-27T03:44:29.776Z,1021.52
2019-02-27T03:45:30.994Z,1021.55
2019-02-27T03:46:29.825Z,1021.48
2019-02-27T03:47:29.851Z,1021.46
2019-02-27T03:48:29.885Z,1021.45
2019-02-27T03:49:29.899Z,1021.41
2019-02-27T03:50:29.928Z,1021.44
2019-02-27T03:51:29.951Z,1021.43
2019-02-27T03:52:36.122Z,1021.44
2019-02-27T03:53:30.001Z,1021.41
2019-02-27T03:54:30.024Z,1021.42
2019-02-27T03:55:32.900Z,1021.37
2019-02-27T03:56:30.084Z,1021.33
2019-02-27T03:57:30.099Z,1021.32
2019-02-27T03:58:30.703Z,1021.32
2019-02-27T03:59:30.156Z,1021.31
2019-02-27T04:00:30.177Z,1021.30
2019-02-27T04:01:31.326Z,1021.28
2019-02-27T04:02:30.224Z,1021.20
2019-02-27T04:03:30.250Z,1021.20
2019-02-27T04:04:30.899Z,1021.12
2019-02-27T04:05:30.298Z,1021.17
2019-02-27T04:06:30.327Z,1021.13
2019-02-27T04:07:31.780Z,1021.07
2019-02-27T04:08:30.375Z,1021.02
2019-02-27T04:09:30.400Z,1020.95
2019-02-27T04:10:31.447Z,1020.95
2019-02-27T04:11:30.451Z,1020.89
2019-02-27T04:12:30.477Z,1020.88
2019-02-27T04:13:30.499Z,1020.92
2019-02-27T04:14:30.526Z,1020.92
2019-02-27T04:15:30.552Z,1020.86
2019-02-27T04:16:30.716Z,1020.89
2019-02-27T04:17:30.599Z,1020.86
2019-02-27T04:18:30.622Z,1020.88
2019-02-27T04:19:30.659Z,1020.85
2019-02-27T04:20:30.674Z,1020.81
2019-02-27T04:21:30.708Z,1020.73
2019-02-27T04:22:36.569Z,1020.69
2019-02-27T04:23:30.748Z,1020.70
2019-02-27T04:24:30.774Z,1020.67
2019-02-27T04:25:31.554Z,1020.63
2019-02-27T04:26:30.824Z,1020.61
2019-02-27T04:27:30.846Z,1020.62
2019-02-27T04:28:30.874Z,1020.63
2019-02-27T04:29:30.902Z,1020.60
2019-02-27T04:30:30.922Z,1020.56
2019-02-27T04:31:30.953Z,1020.55
2019-02-27T04:32:30.971Z,1020.54
2019-02-27T04:33:30.997Z,1020.49
2019-02-27T04:34:33.329Z,1020.50
2019-02-27T04:35:31.046Z,1020.57
2019-02-27T04:36:31.073Z,1020.51
2019-02-27T04:37:31.098Z,1020.51
2019-02-27T04:38:31.121Z,1020.47
2019-02-27T04:39:31.147Z,1020.45
2019-02-27T04:40:31.172Z,1020.40
2019-02-27T04:41:31.206Z,1020.34
2019-02-27T04:42:31.223Z,1020.34
2019-02-27T04:43:32.177Z,1020.28
2019-02-27T04:44:31.272Z,1020.24
2019-02-27T04:45:31.297Z,1020.23
2019-02-27T04:46:31.322Z,1020.27
2019-02-27T04:47:31.349Z,1020.23
2019-02-27T04:48:31.417Z,1020.18
2019-02-27T04:49:31.397Z,1020.17
2019-02-27T04:50:31.422Z,1020.22
2019-02-27T04:51:31.446Z,1020.23
2019-02-27T04:52:31.471Z,1020.22
2019-02-27T04:53:32.493Z,1020.18
2019-02-27T04:54:31.526Z,1020.12
2019-02-27T04:55:31.552Z,1020.11
2019-02-27T04:56:31.578Z,1020.05
2019-02-27T04:57:33.720Z,1020.02
2019-02-27T04:58:31.623Z,1020.07
2019-02-27T04:59:31.647Z,1019.99
2019-02-27T05:00:31.673Z,1019.96
2019-02-27T05:01:36.414Z,1019.94
2019-02-27T05:02:31.723Z,1019.95
2019-02-27T05:03:31.749Z,1019.88
2019-02-27T05:04:34.962Z,1019.89
2019-02-27T05:05:31.802Z,1019.87
2019-02-27T05:06:31.824Z,1019.87
2019-02-27T05:07:31.848Z,1019.86
2019-02-27T05:08:31.880Z,1019.83
2019-02-27T05:09:34.146Z,1019.79
2019-02-27T05:10:33.815Z,1019.74
2019-02-27T05:11:31.951Z,1019.73
2019-02-27T05:12:31.973Z,1019.76
2019-02-27T05:13:32.003Z,1019.77
2019-02-27T05:14:32.026Z,1019.71
2019-02-27T05:15:32.054Z,1019.70
2019-02-27T05:16:32.076Z,1019.67
2019-02-27T05:17:32.101Z,1019.69
2019-02-27T05:18:32.127Z,1019.69
2019-02-27T05:19:32.153Z,1019.68
2019-02-27T05:20:32.180Z,1019.63
2019-02-27T05:21:32.204Z,1019.63
2019-02-27T05:22:32.227Z,1019.60
2019-02-27T05:23:33.519Z,1019.59
2019-02-27T05:24:32.278Z,1019.56
2019-02-27T05:25:32.302Z,1019.50
2019-02-27T05:26:32.331Z,1019.53
2019-02-27T05:27:32.357Z,1019.49
2019-02-27T05:28:34.978Z,1019.46
2019-02-27T05:29:32.407Z,1019.44
2019-02-27T05:30:32.430Z,1019.41
2019-02-27T05:31:32.458Z,1019.42
2019-02-27T05:32:32.479Z,1019.41
2019-02-27T05:33:35.702Z,1019.39
2019-02-27T05:34:32.532Z,1019.40
2019-02-27T05:35:32.555Z,1019.40
2019-02-27T05:36:32.586Z,1019.41
2019-02-27T05:37:32.608Z,1019.44
2019-02-27T05:38:32.632Z,1019.38
2019-02-27T05:39:33.844Z,1019.38
2019-02-27T05:40:32.686Z,1019.36
2019-02-27T05:41:33.725Z,1019.33
2019-02-27T05:42:32.786Z,1019.28
2019-02-27T05:43:32.759Z,1019.28
2019-02-27T05:44:32.786Z,1019.27
2019-02-27T05:45:32.820Z,1019.24
2019-02-27T05:46:32.843Z,1019.22
2019-02-27T05:47:32.862Z,1019.19
2019-02-27T05:48:32.886Z,1019.21
2019-02-27T05:49:32.913Z,1019.15
2019-02-27T05:50:34.243Z,1019.13
2019-02-27T05:51:32.966Z,1019.07
2019-02-27T05:52:32.991Z,1019.01
2019-02-27T05:53:33.016Z,1018.96
2019-02-27T05:54:33.044Z,1018.95
2019-02-27T05:55:33.067Z,1018.90
2019-02-27T05:56:33.093Z,1018.87
2019-02-27T05:57:33.123Z,1018.87
2019-02-27T05:58:33.146Z,1018.86
2019-02-27T05:59:33.171Z,1018.85
2019-02-27T06:00:33.196Z,1018.84
2019-02-27T06:01:33.226Z,1018.82
2019-02-27T06:02:33.248Z,1018.81
2019-02-27T06:03:33.273Z,1018.76
2019-02-27T06:04:34.524Z,1018.72
2019-02-27T06:05:33.700Z,1018.69
2019-02-27T06:06:33.353Z,1018.70
2019-02-27T06:07:33.378Z,1018.64
2019-02-27T06:08:36.788Z,1018.62
2019-02-27T06:09:33.430Z,1018.57
2019-02-27T06:10:33.456Z,1018.59
2019-02-27T06:11:33.485Z,1018.56
2019-02-27T06:12:33.508Z,1018.55
2019-02-27T06:13:33.535Z,1018.49
2019-02-27T06:14:33.558Z,1018.48
2019-02-27T06:15:33.583Z,1018.38
2019-02-27T06:16:37.011Z,1018.33
2019-02-27T06:17:43.128Z,1018.29
2019-02-27T06:18:33.664Z,1018.28
2019-02-27T06:19:34.337Z,1018.29
2019-02-27T06:20:33.714Z,1018.21
2019-02-27T06:21:33.743Z,1018.22
2019-02-27T06:22:33.768Z,1018.19
2019-02-27T06:23:35.338Z,1018.20
2019-02-27T06:24:33.822Z,1018.17
2019-02-27T06:25:33.847Z,1018.19
2019-02-27T06:26:33.873Z,1018.15
2019-02-27T06:27:33.901Z,1018.12
2019-02-27T06:28:33.925Z,1018.15
2019-02-27T06:29:33.952Z,1018.11
2019-02-27T06:30:33.980Z,1018.07
2019-02-27T06:31:36.770Z,1018.01
2019-02-27T06:32:35.753Z,1018.01
2019-02-27T06:33:34.064Z,1018.00
2019-02-27T06:34:34.086Z,1018.00
2019-02-27T06:35:34.369Z,1017.98
2019-02-27T06:36:34.139Z,1017.96
2019-02-27T06:37:34.162Z,1017.93
2019-02-27T06:38:34.191Z,1017.91
2019-02-27T06:39:34.926Z,1017.91
2019-02-27T06:40:34.242Z,1017.88
2019-02-27T06:41:34.268Z,1017.87
2019-02-27T06:42:34.296Z,1017.90
2019-02-27T06:43:34.319Z,1017.87
2019-02-27T06:44:36.650Z,1017.89
2019-02-27T06:45:34.373Z,1017.87
2019-02-27T06:46:34.399Z,1017.88
2019-02-27T06:47:35.559Z,1017.86
2019-02-27T06:48:34.452Z,1017.86
2019-02-27T06:49:34.494Z,1017.91
2019-02-27T06:50:34.504Z,1017.78
2019-02-27T06:51:35.790Z,1017.82
2019-02-27T06:52:34.555Z,1017.76
2019-02-27T06:53:34.586Z,1017.78
2019-02-27T06:54:34.613Z,1017.72
2019-02-27T06:55:34.636Z,1017.66
2019-02-27T06:56:34.662Z,1017.67
2019-02-27T06:57:34.691Z,1017.64
2019-02-27T06:58:34.715Z,1017.61
2019-02-27T06:59:34.742Z,1017.61
2019-02-27T07:00:36.712Z,1017.57
2019-02-27T07:01:34.794Z,1017.57
2019-02-27T07:02:34.823Z,1017.57
2019-02-27T07:03:34.846Z,1017.52
2019-02-27T07:04:39.206Z,1017.50
2019-02-27T07:05:34.901Z,1017.46
2019-02-27T07:06:36.873Z,1017.41
2019-02-27T07:07:34.952Z,1017.42
2019-02-27T07:08:37.918Z,1017.39
2019-02-27T07:09:35.006Z,1017.36
2019-02-27T07:10:35.035Z,1017.33
2019-02-27T07:11:35.062Z,1017.25
2019-02-27T07:12:35.089Z,1017.24
2019-02-27T07:13:35.114Z,1017.20
2019-02-27T07:14:36.528Z,1017.18
2019-02-27T07:15:35.166Z,1017.16
2019-02-27T07:16:35.196Z,1017.11
2019-02-27T07:17:35.219Z,1017.06
2019-02-27T07:18:36.499Z,1017.10
2019-02-27T07:19:35.272Z,1017.08
2019-02-27T07:20:35.300Z,1017.12
2019-02-27T07:21:35.327Z,1017.02
2019-02-27T07:22:35.360Z,1017.00
2019-02-27T07:23:35.381Z,1016.95
2019-02-27T07:24:35.413Z,1016.90
2019-02-27T07:25:35.436Z,1016.92
2019-02-27T07:26:35.474Z,1016.88
2019-02-27T07:27:35.494Z,1016.84
2019-02-27T07:28:35.520Z,1016.86
2019-02-27T07:29:35.548Z,1016.79
2019-02-27T07:30:35.581Z,1016.71
2019-02-27T07:31:35.605Z,1016.69
2019-02-27T07:32:35.631Z,1016.67
2019-02-27T07:33:40.153Z,1016.64
2019-02-27T07:34:35.692Z,1016.60
2019-02-27T07:35:35.717Z,1016.61
2019-02-27T07:36:36.025Z,1016.51
2019-02-27T07:37:35.779Z,1016.48
2019-02-27T07:38:35.807Z,1016.40
2019-02-27T07:39:35.833Z,1016.45
2019-02-27T07:40:35.867Z,1016.37
2019-02-27T07:41:35.897Z,1016.36
2019-02-27T07:42:36.336Z,1016.32
2019-02-27T07:43:35.956Z,1016.24
2019-02-27T07:44:35.987Z,1016.29
2019-02-27T07:45:36.015Z,1016.25
2019-02-27T07:46:36.048Z,1016.16
2019-02-27T07:47:36.076Z,1016.13
2019-02-27T07:48:36.110Z,1016.11
2019-02-27T07:49:36.143Z,1016.06
2019-02-27T07:50:36.178Z,1016.06
2019-02-27T07:51:36.205Z,1015.94
2019-02-27T07:52:36.237Z,1015.87
2019-02-27T07:53:36.272Z,1015.83
2019-02-27T07:54:36.306Z,1015.77
2019-02-27T07:55:36.337Z,1015.75
2019-02-27T07:56:36.370Z,1015.70
2019-02-27T07:57:36.402Z,1015.64
2019-02-27T07:58:36.435Z,1015.53
2019-02-27T07:59:38.252Z,1015.62
2019-02-27T08:00:36.497Z,1015.52
2019-02-27T08:01:43.448Z,1015.46
2019-02-27T08:02:36.839Z,1015.40
2019-02-27T08:03:36.594Z,1015.34
2019-02-27T08:04:36.630Z,1015.30
2019-02-27T08:05:36.659Z,1015.32
2019-02-27T08:06:37.741Z,1015.30
2019-02-27T08:07:36.729Z,1015.28
2019-02-27T08:08:36.769Z,1015.19
2019-02-27T08:09:36.795Z,1015.15
2019-02-27T08:10:37.458Z,1015.16
2019-02-27T08:11:36.855Z,1015.08
2019-02-27T08:12:36.884Z,1015.08
2019-02-27T08:13:36.918Z,1015.05
2019-02-27T08:14:37.759Z,1015.04
2019-02-27T08:15:36.977Z,1015.00
2019-02-27T08:16:37.132Z,1014.97
2019-02-27T08:17:37.042Z,1014.95
2019-02-27T08:18:38.171Z,1014.99
2019-02-27T08:19:37.106Z,1014.94
2019-02-27T08:20:37.150Z,1014.86
2019-02-27T08:21:37.226Z,1014.84
2019-02-27T08:22:37.199Z,1014.82
2019-02-27T08:23:37.228Z,1014.84
2019-02-27T08:24:37.261Z,1014.82
2019-02-27T08:25:37.296Z,1014.78
2019-02-27T08:26:37.322Z,1014.76
2019-02-27T08:27:37.355Z,1014.68
2019-02-27T08:28:37.383Z,1014.68
2019-02-27T08:29:37.413Z,1014.60
2019-02-27T08:30:37.446Z,1014.54
2019-02-27T08:31:37.477Z,1014.55
2019-02-27T08:32:37.509Z,1014.48
2019-02-27T08:33:37.538Z,1014.41
2019-02-27T08:34:37.572Z,1014.43
2019-02-27T08:35:37.603Z,1014.36
2019-02-27T08:36:37.631Z,1014.31
2019-02-27T08:37:37.665Z,1014.27
2019-02-27T08:38:37.693Z,1014.25
2019-02-27T08:39:37.723Z,1014.15
2019-02-27T08:40:37.758Z,1014.25
2019-02-27T08:41:37.786Z,1014.30
2019-02-27T08:42:40.246Z,1014.31
2019-02-27T08:43:37.848Z,1014.27
2019-02-27T08:44:37.881Z,1014.33
2019-02-27T08:45:37.915Z,1014.28
2019-02-27T08:46:37.943Z,1014.18
2019-02-27T08:47:37.975Z,1014.05
2019-02-27T08:48:38.007Z,1014.03
2019-02-27T08:49:38.040Z,1013.96
2019-02-27T08:50:38.073Z,1014.01
2019-02-27T08:51:39.750Z,1013.95
2019-02-27T08:52:38.138Z,1013.91
2019-02-27T08:53:38.171Z,1013.95
2019-02-27T08:54:38.203Z,1013.97
2019-02-27T08:55:39.318Z,1013.91
2019-02-27T08:56:38.268Z,1013.91
2019-02-27T08:57:38.302Z,1013.86
2019-02-27T08:58:38.340Z,1013.90
2019-02-27T08:59:39.884Z,1013.84
2019-02-27T09:00:38.400Z,1013.83
2019-02-27T09:01:38.433Z,1013.77
2019-02-27T09:02:39.716Z,1013.72
2019-02-27T09:03:38.510Z,1013.68
2019-02-27T09:04:38.533Z,1013.75
2019-02-27T09:05:38.567Z,1013.75
2019-02-27T09:06:38.601Z,1013.72
2019-02-27T09:07:38.638Z,1013.59
2019-02-27T09:08:43.057Z,1013.71
2019-02-27T09:09:38.703Z,1013.62
2019-02-27T09:10:38.738Z,1013.64
2019-02-27T09:11:40.050Z,1013.56
2019-02-27T09:12:40.269Z,1013.51
2019-02-27T09:13:38.840Z,1013.49
2019-02-27T09:14:38.875Z,1013.33
2019-02-27T09:15:38.907Z,1013.33
2019-02-27T09:16:38.946Z,1013.31
2019-02-27T09:17:38.988Z,1013.25
2019-02-27T09:18:39.013Z,1013.19
2019-02-27T09:19:39.050Z,1013.27
2019-02-27T09:20:39.081Z,1013.27
2019-02-27T09:21:39.114Z,1013.22
2019-02-27T09:22:39.148Z,1013.15
2019-02-27T09:23:39.183Z,1013.11
2019-02-27T09:24:39.216Z,1013.17
2019-02-27T09:25:39.252Z,1013.16
2019-02-27T09:26:39.281Z,1013.06
2019-02-27T09:27:39.314Z,1013.01
2019-02-27T09:28:39.357Z,1013.05
2019-02-27T09:29:39.382Z,1013.13
2019-02-27T09:30:39.414Z,1013.15
2019-02-27T09:31:50.258Z,1013.25
2019-02-27T09:32:39.481Z,1013.13
2019-02-27T09:33:39.513Z,1013.09
2019-02-27T09:34:39.548Z,1013.10
2019-02-27T09:35:39.580Z,1013.16
2019-02-27T09:36:42.992Z,1013.09
2019-02-27T09:37:39.650Z,1012.99
2019-02-27T09:38:39.680Z,1012.87
2019-02-27T09:39:39.713Z,1013.04
2019-02-27T09:40:39.756Z,1012.92
2019-02-27T09:41:39.781Z,1012.86
2019-02-27T09:42:39.816Z,1012.84
2019-02-27T09:43:39.851Z,1013.00
2019-02-27T09:44:39.888Z,1012.89
2019-02-27T09:45:39.918Z,1012.89
2019-02-27T09:46:39.952Z,1012.80
2019-02-27T09:47:39.989Z,1012.75
2019-02-27T09:48:40.037Z,1012.69
2019-02-27T09:49:40.801Z,1012.81
2019-02-27T09:50:40.092Z,1012.66
2019-02-27T09:51:40.124Z,1012.68
2019-02-27T09:52:40.167Z,1012.62
2019-02-27T09:53:40.193Z,1012.65
2019-02-27T09:54:40.227Z,1012.70
2019-02-27T09:55:40.258Z,1012.76
2019-02-27T09:56:40.289Z,1012.81
2019-02-27T09:57:40.328Z,1012.81
2019-02-27T09:58:45.040Z,1012.90
2019-02-27T09:59:40.391Z,1012.98
2019-02-27T10:00:40.425Z,1013.00
2019-02-27T10:01:40.464Z,1013.26
2019-02-27T10:02:43.171Z,1013.20
2019-02-27T10:03:40.531Z,1013.20
2019-02-27T10:04:40.563Z,1013.15
2019-02-27T10:05:40.932Z,1013.17
2019-02-27T10:06:42.814Z,1013.08
2019-02-27T10:07:40.662Z,1013.06
2019-02-27T10:08:40.696Z,1013.13
2019-02-27T10:09:40.731Z,1013.16
2019-02-27T10:10:44.906Z,1013.22
2019-02-27T10:11:40.799Z,1013.12
2019-02-27T10:12:42.274Z,1013.25
2019-02-27T10:13:40.868Z,1013.21
2019-02-27T10:14:40.899Z,1013.21
2019-02-27T10:15:40.936Z,1013.24
2019-02-27T10:16:40.967Z,1013.07
2019-02-27T10:17:43.588Z,1013.14
2019-02-27T10:18:41.036Z,1013.20
2019-02-27T10:19:41.068Z,1013.23
2019-02-27T10:20:41.101Z,1013.17
2019-02-27T10:21:41.374Z,1013.20
2019-02-27T10:22:41.177Z,1013.11
2019-02-27T10:23:41.204Z,1013.11
2019-02-27T10:24:41.234Z,1013.04
2019-02-27T10:25:43.474Z,1013.02
2019-02-27T10:26:41.301Z,1012.96
2019-02-27T10:27:41.332Z,1013.03
2019-02-27T10:28:41.383Z,1012.96
2019-02-27T10:29:41.453Z,1012.89
2019-02-27T10:30:41.433Z,1012.87
2019-02-27T10:31:41.469Z,1012.83
2019-02-27T10:32:41.502Z,1012.85
2019-02-27T10:33:42.876Z,1012.83
2019-02-27T10:34:41.572Z,1012.87
2019-02-27T10:35:41.602Z,1012.81
2019-02-27T10:36:41.638Z,1012.77
2019-02-27T10:37:41.704Z,1012.77
2019-02-27T10:38:41.703Z,1012.81
2019-02-27T10:39:41.734Z,1012.81
2019-02-27T10:40:41.771Z,1012.88
2019-02-27T10:41:41.803Z,1012.86
2019-02-27T10:42:41.835Z,1012.81
2019-02-27T10:43:41.869Z,1012.76
2019-02-27T10:44:41.902Z,1012.73
2019-02-27T10:45:42.272Z,1012.84
2019-02-27T10:46:41.967Z,1012.86
2019-02-27T10:47:42.001Z,1012.96
2019-02-27T10:48:42.037Z,1013.01
2019-02-27T10:49:42.070Z,1012.95
2019-02-27T10:50:42.104Z,1012.97
2019-02-27T10:51:43.776Z,1012.94
2019-02-27T10:52:42.171Z,1012.90
2019-02-27T10:53:42.207Z,1012.82
2019-02-27T10:54:42.238Z,1012.82
2019-02-27T10:55:42.274Z,1012.74
2019-02-27T10:56:42.306Z,1012.69
2019-02-27T10:57:42.343Z,1012.76
2019-02-27T10:58:45.057Z,1012.76
2019-02-27T10:59:42.413Z,1012.67
2019-02-27T11:00:42.449Z,1012.61
2019-02-27T11:01:42.482Z,1012.56
2019-02-27T11:02:45.134Z,1012.52
2019-02-27T11:03:42.552Z,1012.42
2019-02-27T11:04:42.593Z,1012.48
2019-02-27T11:05:42.625Z,1012.48
2019-02-27T11:06:42.664Z,1012.40
2019-02-27T11:07:42.699Z,1012.38
2019-02-27T11:08:42.732Z,1012.34
2019-02-27T11:09:42.771Z,1012.43
2019-02-27T11:10:42.805Z,1012.41
2019-02-27T11:11:42.841Z,1012.45
2019-02-27T11:12:42.876Z,1012.37
2019-02-27T11:13:42.913Z,1012.29
2019-02-27T11:14:42.952Z,1012.27
2019-02-27T11:15:44.614Z,1012.34
2019-02-27T11:16:43.027Z,1012.29
2019-02-27T11:17:43.064Z,1012.29
2019-02-27T11:18:43.098Z,1012.23
2019-02-27T11:19:43.132Z,1012.21
2019-02-27T11:20:43.172Z,1012.20
2019-02-27T11:21:43.207Z,1012.20
2019-02-27T11:22:43.245Z,1012.23
2019-02-27T11:23:43.281Z,1012.25
2019-02-27T11:24:43.319Z,1012.17
2019-02-27T11:25:43.357Z,1012.12
2019-02-27T11:26:43.395Z,1012.12
2019-02-27T11:27:43.435Z,1012.17
2019-02-27T11:28:47.532Z,1012.11
2019-02-27T11:29:43.508Z,1012.15
2019-02-27T11:30:43.545Z,1012.10
2019-02-27T11:31:45.541Z,1012.14
2019-02-27T11:32:43.619Z,1012.01
2019-02-27T11:33:43.655Z,1012.05
2019-02-27T11:34:45.605Z,1011.96
2019-02-27T11:35:43.734Z,1011.94
2019-02-27T11:36:43.765Z,1011.90
2019-02-27T11:37:46.628Z,1011.90
2019-02-27T11:38:43.841Z,1012.04
2019-02-27T11:39:43.881Z,1011.95
2019-02-27T11:40:43.913Z,1011.92
2019-02-27T11:41:46.104Z,1011.87
2019-02-27T11:42:43.983Z,1011.87
2019-02-27T11:43:44.018Z,1011.82
2019-02-27T11:44:44.127Z,1011.78
2019-02-27T11:45:44.097Z,1011.76
2019-02-27T11:46:44.126Z,1011.69
2019-02-27T11:47:47.761Z,1011.64
2019-02-27T11:48:44.203Z,1011.64
2019-02-27T11:49:44.235Z,1011.57
2019-02-27T11:50:44.273Z,1011.53
2019-02-27T11:51:44.308Z,1011.44
2019-02-27T11:52:48.822Z,1011.30
2019-02-27T11:53:44.388Z,1011.17
2019-02-27T11:54:44.423Z,1011.10
2019-02-27T11:55:47.155Z,1011.12
2019-02-27T11:56:44.492Z,1011.07
2019-02-27T11:57:44.527Z,1011.03
2019-02-27T11:58:44.564Z,1011.00
2019-02-27T11:59:46.876Z,1010.95
2019-02-27T12:00:44.632Z,1010.93
2019-02-27T12:01:44.668Z,1010.93
2019-02-27T12:02:44.703Z,1011.04
2019-02-27T12:03:46.021Z,1011.11
2019-02-27T12:04:44.770Z,1011.16
2019-02-27T12:05:44.807Z,1011.08